»·PEaware :: N32FD KLAS-L35

N32FD :: KLAS-L35

FLIGHT INFORMATION

Flight Status: Arrived
Operator: Privately registered:
United States
More flights under this callsign
Pilot: Joe C. (32102)
Aircraft: AERMACCHI WARRIOR
(F260)
More flights by this aircraft type
Origin: KLAS McCarran Intl
United States
Destination: L35 Big Bear City
United States
More flights between these airports :: More routes between these airports
Route: LAS V538 GFS V210 HEC
File this flight plan on PilotEdge
Remarks:
Altitude:
(Current/Filed)
10,000ft
Speed:
(Current/Filed)
153kts
Departed: 07-Jan-21 09:35 PM
Arrived: 07-Jan-21 10:39 PM
Distance/Time
Traveled:
137nm/1:03
Distance/Time
To Go:
Arrived

Flight Plot

Page will automatically refresh every two minutes.

Flight plan parsing failed; only flown route is shown


Map Options




Map Legend


Flown Route
Filed Route
Departure Airport
Arrival Airport
Navaid (VOR, NDB)
Fix

Horizontal Profiles

Position Reports

Time Latitude Longitude Heading Altitude Ground
Speed
07-Jan-21 21:16 36.084035 -115.169884 179 2161ft 0kts
07-Jan-21 21:16 36.084035 -115.169884 179 2161ft 0kts
07-Jan-21 21:17 36.084035 -115.169884 179 2161ft 0kts
07-Jan-21 21:18 36.084035 -115.169884 179 2161ft 0kts
07-Jan-21 21:19 36.084035 -115.169884 179 2161ft 0kts
07-Jan-21 21:20 36.084035 -115.169884 179 2161ft 0kts
07-Jan-21 21:21 36.084035 -115.169884 179 2161ft 0kts
07-Jan-21 21:22 36.084035 -115.169884 179 2161ft 0kts
07-Jan-21 21:23 36.084035 -115.169884 179 2161ft 0kts
07-Jan-21 21:24 36.084035 -115.169884 179 2161ft 0kts
07-Jan-21 21:25 36.084035 -115.169884 179 2161ft 0kts
07-Jan-21 21:26 36.083887 -115.169819 114 2161ft 1kts
07-Jan-21 21:27 36.083882 -115.169806 113 2161ft 0kts
07-Jan-21 21:28 36.083650 -115.169281 111 2159ft 6kts
07-Jan-21 21:29 36.086396 -115.166466 27 2142ft 18kts
07-Jan-21 21:30 36.092233 -115.163058 25 2116ft 24kts
07-Jan-21 21:31 36.098085 -115.159752 24 2093ft 26kts
07-Jan-21 21:32 36.099757 -115.157975 69 2087ft 0kts
07-Jan-21 21:33 36.098955 -115.156862 206 2086ft 23kts
07-Jan-21 21:34 36.079754 -115.166397 178 2962ft 89kts
07-Jan-21 21:35 36.050666 -115.167126 184 4197ft 112kts
07-Jan-21 21:36 36.018761 -115.171019 187 5355ft 122kts
07-Jan-21 21:37 35.982499 -115.177197 188 6027ft 148kts
07-Jan-21 21:38 35.942906 -115.183056 185 6840ft 140kts
07-Jan-21 21:39 35.903430 -115.188134 185 7531ft 146kts
07-Jan-21 21:40 35.862849 -115.190887 174 8282ft 146kts
07-Jan-21 21:41 35.822219 -115.187716 182 9007ft 146kts
07-Jan-21 21:42 35.781646 -115.188404 180 9709ft 145kts
07-Jan-21 21:43 35.739458 -115.187909 180 10006ft 164kts
07-Jan-21 21:44 35.692642 -115.187098 180 10057ft 172kts
07-Jan-21 21:45 35.644432 -115.186195 180 10055ft 170kts
07-Jan-21 21:46 35.596701 -115.185255 180 10056ft 172kts
07-Jan-21 21:47 35.548997 -115.184349 180 10056ft 172kts
07-Jan-21 21:48 35.500960 -115.183395 180 10054ft 172kts
07-Jan-21 21:49 35.452917 -115.182468 180 10041ft 173kts
07-Jan-21 21:50 35.404795 -115.181538 180 10029ft 173kts
07-Jan-21 21:51 35.356650 -115.180605 180 10017ft 173kts
07-Jan-21 21:52 35.308561 -115.179677 180 10017ft 173kts
07-Jan-21 21:53 35.260403 -115.178741 180 10017ft 173kts
07-Jan-21 21:54 35.212295 -115.177824 180 10017ft 173kts
07-Jan-21 21:55 35.164061 -115.176886 180 10017ft 173kts
07-Jan-21 21:56 35.116408 -115.178833 208 10008ft 171kts
07-Jan-21 21:57 35.097865 -115.228960 257 10019ft 166kts
07-Jan-21 21:58 35.090023 -115.284896 266 10019ft 166kts
07-Jan-21 21:59 35.086266 -115.340494 264 10019ft 166kts
07-Jan-21 22:00 35.076692 -115.395922 256 10019ft 166kts
07-Jan-21 22:01 35.063850 -115.450854 254 10019ft 167kts
07-Jan-21 22:02 35.050500 -115.505452 254 10019ft 167kts
07-Jan-21 22:03 35.037113 -115.559729 254 10019ft 166kts
07-Jan-21 22:04 35.023753 -115.613754 254 10019ft 166kts
07-Jan-21 22:05 35.010273 -115.667790 253 10020ft 166kts
07-Jan-21 22:06 34.996810 -115.721619 253 10020ft 166kts
07-Jan-21 22:07 34.982255 -115.775103 244 10022ft 166kts
07-Jan-21 22:08 34.960831 -115.825351 248 10015ft 166kts
07-Jan-21 22:09 34.947222 -115.879330 253 10020ft 166kts
07-Jan-21 22:10 34.933526 -115.933364 253 10020ft 166kts
07-Jan-21 22:11 34.919821 -115.987142 253 10024ft 166kts
07-Jan-21 22:12 34.906074 -116.040833 253 10028ft 165kts
07-Jan-21 22:13 34.892042 -116.094180 253 10032ft 164kts
07-Jan-21 22:14 34.878332 -116.147436 253 10036ft 164kts
07-Jan-21 22:15 34.864682 -116.200482 253 10041ft 164kts
07-Jan-21 22:16 34.850946 -116.253771 253 10045ft 164kts
07-Jan-21 22:17 34.837220 -116.306930 253 10049ft 164kts
07-Jan-21 22:18 34.823548 -116.359772 253 10052ft 164kts
07-Jan-21 22:19 34.809824 -116.412705 253 10070ft 163kts
07-Jan-21 22:20 34.796014 -116.465878 253 9972ft 169kts
07-Jan-21 22:21 34.759222 -116.498175 206 9977ft 168kts
07-Jan-21 22:22 34.716164 -116.520204 212 9992ft 166kts
07-Jan-21 22:23 34.676077 -116.549628 212 10000ft 167kts
07-Jan-21 22:24 34.635970 -116.578571 212 10000ft 167kts
07-Jan-21 22:25 34.595901 -116.607372 212 10000ft 167kts
07-Jan-21 22:26 34.555671 -116.636233 212 10000ft 167kts
07-Jan-21 22:27 34.516639 -116.664197 212 10001ft 168kts
07-Jan-21 22:28 34.475100 -116.693922 212 10001ft 168kts
07-Jan-21 22:29 34.434772 -116.722752 212 10001ft 168kts
07-Jan-21 22:30 34.394584 -116.751453 212 10001ft 168kts
07-Jan-21 22:31 34.354215 -116.780251 212 10001ft 168kts
07-Jan-21 22:32 34.314004 -116.808901 212 10001ft 168kts
07-Jan-21 22:33 34.290837 -116.853913 251 9909ft 171kts
07-Jan-21 22:34 34.254416 -116.873150 129 8969ft 182kts
07-Jan-21 22:35 34.246519 -116.822079 58 8245ft 118kts
07-Jan-21 22:36 34.263990 -116.835374 268 7015ft 98kts
07-Jan-21 22:37 34.263782 -116.860638 270 6753ft 43kts
07-Jan-21 22:38 34.263205 -116.863611 91 6753ft 18kts
07-Jan-21 22:40 34.262723 -116.859152 0 6753ft 0kts
07-Jan-21 22:41 34.262723 -116.859152 0 6753ft 0kts
07-Jan-21 22:42 34.262723 -116.859152 0 6753ft 0kts
07-Jan-21 22:43 34.262723 -116.859152 0 6753ft 0kts
07-Jan-21 22:44 34.262723 -116.859152 0 6753ft 0kts

Navigation Log

Ident Type
Flight plan parsing failed, navigation log unavailable